Time;durP1;ratioP1;P1;durP2;ratioP2;P2;SDS_P1;SDS_P2;PMS_P1;PMS_P2;Temp;Humidity;BMP_temperature;BMP_pressure;BME280_temperature;BME280_humidity;BME280_pressure;Samples;Min_cycle;Max_cycle;Signal;HPM_P1;HPM_P2
2023/06/02 01:26:38;;;;;;;14.77;7.75;;;;;;;;;;8484188;27;20390;-96
2023/06/02 01:35:31;;;;;;;11.43;7.75;;;;;;;;;;8435602;23;20052;-96
2023/06/02 01:39:35;;;;;;;11.90;8.68;;;;;;;;;;8399304;28;20098;-94
2023/06/02 01:43:40;;;;;;;12.23;7.53;;;;;;;;;;8387407;28;20056;-96
2023/06/02 01:47:43;;;;;;;14.88;7.47;;;;;;;;;;8405327;28;20044;-93
2023/06/02 01:51:47;;;;;;;16.85;7.03;;;;;;;;;;8408685;28;20450;-95
2023/06/02 01:55:50;;;;;;;10.93;7.38;;;;;;;;;;8406257;28;20100;-93
2023/06/02 01:59:54;;;;;;;11.25;7.18;;;;;;;;;;8419788;28;20131;-95
2023/06/02 02:03:57;;;;;;;11.82;6.57;;;;;;;;;;8402885;28;20047;-94
2023/06/02 02:08:01;;;;;;;12.55;7.25;;;;;;;;;;8412786;28;20761;-95
2023/06/02 02:12:05;;;;;;;13.75;7.43;;;;;;;;;;8407301;28;20053;-95
2023/06/02 02:16:10;;;;;;;11.98;7.22;;;;;;;;;;8395109;28;20090;-95
2023/06/02 02:20:16;;;;;;;10.60;6.85;;;;;;;;;;8416390;28;20475;-94
2023/06/02 02:24:19;;;;;;;16.73;8.10;;;;;;;;;;8407685;28;20048;-94
2023/06/02 02:28:22;;;;;;;10.27;6.75;;;;;;;;;;8403790;28;20101;-94
2023/06/02 02:32:27;;;;;;;44.20;25.73;;;;;;;;;;8360671;28;20069;-95
2023/06/02 02:36:32;;;;;;;53.10;23.40;;;;;;;;;;8399185;28;20055;-94
2023/06/02 02:40:35;;;;;;;67.43;28.98;;;;;;;;;;8384838;28;20564;-93
2023/06/02 02:44:38;;;;;;;46.50;21.83;;;;;;;;;;8384245;28;20102;-94
2023/06/02 02:48:42;;;;;;;19.85;10.60;;;;;;;;;;8382921;28;20045;-94
2023/06/02 02:52:45;;;;;;;19.77;10.65;;;;;;;;;;8356205;28;20048;-94
2023/06/02 02:56:48;;;;;;;19.63;10.57;;;;;;;;;;8382189;28;20049;-95
2023/06/02 03:00:51;;;;;;;28.98;14.02;;;;;;;;;;8388156;28;20044;-95
2023/06/02 03:04:56;;;;;;;33.90;15.57;;;;;;;;;;8401854;28;20079;-94
2023/06/02 03:08:59;;;;;;;27.90;14.63;;;;;;;;;;8374809;28;20047;-95
2023/06/02 03:13:03;;;;;;;16.98;10.98;;;;;;;;;;8382211;28;20098;-94
2023/06/02 03:17:08;;;;;;;20.70;10.15;;;;;;;;;;8368950;28;20053;-95
2023/06/02 03:21:13;;;;;;;15.40;9.40;;;;;;;;;;8381744;28;20048;-95
2023/06/02 03:25:20;;;;;;;18.90;10.02;;;;;;;;;;8362396;28;20045;-96
2023/06/02 03:29:23;;;;;;;14.85;9.30;;;;;;;;;;8383212;28;20045;-95
2023/06/02 03:33:26;;;;;;;14.82;8.57;;;;;;;;;;8381796;28;20060;-94
2023/06/02 03:37:31;;;;;;;14.68;8.82;;;;;;;;;;8381245;28;20219;-95
2023/06/02 03:41:35;;;;;;;15.45;9.38;;;;;;;;;;8362282;28;20139;-96
2023/06/02 03:45:38;;;;;;;18.75;10.70;;;;;;;;;;8387963;28;20098;-96
2023/06/02 03:49:41;;;;;;;20.02;10.73;;;;;;;;;;8381700;28;20131;-95
2023/06/02 03:53:46;;;;;;;21.73;10.10;;;;;;;;;;8382291;28;20044;-95
2023/06/02 03:57:49;;;;;;;21.38;11.32;;;;;;;;;;8389155;28;20046;-95
2023/06/02 04:01:52;;;;;;;17.42;10.52;;;;;;;;;;8367620;28;20060;-96
2023/06/02 04:05:55;;;;;;;18.77;10.60;;;;;;;;;;8358443;28;20056;-95
2023/06/02 04:10:00;;;;;;;19.85;9.27;;;;;;;;;;8391009;28;20144;-95
2023/06/02 04:14:07;;;;;;;18.77;9.30;;;;;;;;;;8385598;28;20048;-95
2023/06/02 04:22:45;;;;;;;14.65;7.70;;;;;;;;;;8383277;28;20059;-96
2023/06/02 04:26:56;;;;;;;14.97;7.43;;;;;;;;;;8359676;28;20049;-96
2023/06/02 04:31:45;;;;;;;19.23;7.43;;;;;;;;;;8382453;28;20045;-96
2023/06/02 04:36:10;;;;;;;12.52;7.35;;;;;;;;;;8367307;28;20065;-96
2023/06/02 04:40:31;;;;;;;15.90;7.55;;;;;;;;;;8344923;28;20132;-96
2023/06/02 04:44:39;;;;;;;24.52;9.48;;;;;;;;;;8344873;28;20049;-95
2023/06/02 04:48:43;;;;;;;17.75;8.00;;;;;;;;;;8349168;28;20053;-95
2023/06/02 04:57:42;;;;;;;17.92;6.85;;;;;;;;;;8306119;28;20061;-96
2023/06/02 05:01:58;;;;;;;16.23;6.45;;;;;;;;;;8308754;28;20054;-96
2023/06/02 05:06:05;;;;;;;13.63;6.85;;;;;;;;;;8325983;28;20143;-96
2023/06/02 05:10:13;;;;;;;14.55;6.75;;;;;;;;;;8353286;28;20072;-96
2023/06/02 05:19:13;;;;;;;13.75;6.25;;;;;;;;;;8260331;28;20046;-96
2023/06/02 05:23:22;;;;;;;14.73;6.20;;;;;;;;;;8254388;28;20053;-96
2023/06/02 06:11:25;;;;;;;14.32;6.10;;;;;;;;;;8441706;23;20095;-95
2023/06/02 06:20:02;;;;;;;14.63;5.25;;;;;;;;;;8138737;29;20063;-96
2023/06/02 06:24:23;;;;;;;;;;;;;;;;;;;;;
2023/06/02 06:33:06;;;;;;;18.33;5.50;;;;;;;;;;8130592;29;20171;-94
2023/06/02 06:42:04;;;;;;;15.43;4.88;;;;;;;;;;8126326;29;20493;-96
2023/06/02 06:56:28;;;;;;;11.05;4.60;;;;;;;;;;8351523;23;20067;-95
2023/06/02 07:10:37;;;;;;;10.45;4.38;;;;;;;;;;8173931;28;20079;-95
2023/06/02 07:15:52;;;;;;;13.73;5.38;;;;;;;;;;8114555;29;20049;-96
2023/06/02 08:27:22;;;;;;;7.32;3.67;;;;;;;;;;8201727;29;20048;-95
2023/06/02 09:01:07;;;;;;;11.80;4.45;;;;;;;;;;8211163;28;20057;-96
2023/06/02 09:11:01;;;;;;;9.93;3.70;;;;;;;;;;8125426;29;20054;-96
2023/06/02 09:31:07;;;;;;;9.45;4.05;;;;;;;;;;8064430;29;20049;-95
2023/06/02 09:41:15;;;;;;;11.48;4.88;;;;;;;;;;8287740;23;20530;-94
2023/06/02 09:45:18;;;;;;;;;;;;;;;;;;8200447;23;20094;-94
2023/06/02 09:49:23;;;;;;;6.03;3.92;;;;;;;;;;8184947;29;19942;-93
2023/06/02 09:53:27;;;;;;;8.88;4.40;;;;;;;;;;8159063;29;20071;-96
2023/06/02 09:57:33;;;;;;;11.07;4.53;;;;;;;;;;8198487;28;20455;-95
2023/06/02 10:01:37;;;;;;;8.68;4.70;;;;;;;;;;8196856;29;20080;-95
2023/06/02 10:05:51;;;;;;;9.25;3.95;;;;;;;;;;8195064;29;20125;-94
2023/06/02 10:10:16;;;;;;;11.80;5.35;;;;;;;;;;8196107;29;20042;-94
2023/06/02 10:14:36;;;;;;;10.55;5.68;;;;;;;;;;8194095;29;20047;-94
2023/06/02 10:19:42;;;;;;;14.45;4.80;;;;;;;;;;8198408;29;20055;-95
2023/06/02 10:23:56;;;;;;;13.18;4.72;;;;;;;;;;8201866;29;20051;-95
2023/06/02 10:28:02;;;;;;;12.20;4.97;;;;;;;;;;8190864;28;20054;-95
2023/06/02 10:32:22;;;;;;;10.20;5.30;;;;;;;;;;8166987;29;20055;-95
2023/06/02 10:36:25;;;;;;;8.60;5.25;;;;;;;;;;8184127;29;20051;-95
2023/06/02 10:40:49;;;;;;;9.50;5.40;;;;;;;;;;8199903;28;20051;-95
2023/06/02 10:44:54;;;;;;;9.95;5.60;;;;;;;;;;8170515;29;20071;-95
2023/06/02 10:49:01;;;;;;;12.50;5.05;;;;;;;;;;8191040;28;20039;-95
2023/06/02 10:53:12;;;;;;;8.80;5.50;;;;;;;;;;8194053;28;20055;-95
2023/06/02 10:57:49;;;;;;;9.23;5.47;;;;;;;;;;8194015;29;20803;-94
2023/06/02 11:01:53;;;;;;;10.95;5.10;;;;;;;;;;8208647;29;20102;-94
2023/06/02 11:06:22;;;;;;;8.70;5.03;;;;;;;;;;8194361;28;20054;-96
2023/06/02 11:10:42;;;;;;;10.57;5.00;;;;;;;;;;8177033;29;20048;-94
2023/06/02 11:18:50;;;;;;;9.50;5.05;;;;;;;;;;8213691;23;20142;-94
2023/06/02 11:23:04;;;;;;;15.43;6.80;;;;;;;;;;8180934;28;20051;-94
2023/06/02 11:27:07;;;;;;;15.13;5.50;;;;;;;;;;8179009;28;20055;-94
2023/06/02 11:31:15;;;;;;;12.95;5.40;;;;;;;;;;8190981;28;20160;-94
2023/06/02 11:35:46;;;;;;;12.45;5.78;;;;;;;;;;8196732;28;20048;-93
2023/06/02 11:44:13;;;;;;;7.40;3.95;;;;;;;;;;8213397;23;20062;-94
2023/06/02 11:48:24;;;;;;;11.05;3.78;;;;;;;;;;8198416;28;20058;-94
2023/06/02 11:52:37;;;;;;;10.07;4.22;;;;;;;;;;8203366;28;20046;-94
2023/06/02 11:56:48;;;;;;;5.30;3.35;;;;;;;;;;8205163;28;20078;-95
2023/06/02 12:00:53;;;;;;;16.70;4.22;;;;;;;;;;8180242;29;20055;-95
2023/06/02 12:04:56;;;;;;;10.60;3.78;;;;;;;;;;8203558;28;20039;-94
2023/06/02 12:14:44;;;;;;;8.20;3.50;;;;;;;;;;8213949;23;20416;-94
2023/06/02 12:19:19;;;;;;;8.68;4.00;;;;;;;;;;8164908;28;20101;-95
2023/06/02 12:23:24;;;;;;;12.20;4.13;;;;;;;;;;8157311;29;20066;-96
2023/06/02 12:32:21;;;;;;;9.77;4.63;;;;;;;;;;8204444;28;20569;-94
2023/06/02 12:36:28;;;;;;;9.68;3.40;;;;;;;;;;8153999;28;20062;-95
2023/06/02 12:40:34;;;;;;;8.48;3.20;;;;;;;;;;8201299;28;20094;-93
2023/06/02 12:44:39;;;;;;;7.50;3.25;;;;;;;;;;8201746;28;20054;-96
2023/06/02 12:48:45;;;;;;;9.63;3.40;;;;;;;;;;8202128;28;20050;-94
2023/06/02 12:53:06;;;;;;;6.20;3.25;;;;;;;;;;8185839;28;20047;-94
2023/06/02 13:16:53;;;;;;;7.53;3.58;;;;;;;;;;8339902;23;20048;-96
2023/06/02 13:21:08;;;;;;;6.72;3.75;;;;;;;;;;8209681;28;20051;-96
2023/06/02 13:25:22;;;;;;;8.07;3.58;;;;;;;;;;8189768;29;20044;-95
2023/06/02 13:29:36;;;;;;;8.20;4.10;;;;;;;;;;8197260;28;20079;-95
2023/06/02 13:38:08;;;;;;;10.90;4.10;;;;;;;;;;8188661;28;20050;-96
2023/06/02 13:42:16;;;;;;;12.43;4.53;;;;;;;;;;8190339;29;20051;-95
2023/06/02 13:46:20;;;;;;;8.38;3.95;;;;;;;;;;8201226;28;20050;-95
2023/06/02 13:50:31;;;;;;;11.73;4.57;;;;;;;;;;8184178;29;20063;-94
2023/06/02 13:54:40;;;;;;;10.80;4.65;;;;;;;;;;8186552;29;20110;-95
2023/06/02 13:58:43;;;;;;;12.77;5.28;;;;;;;;;;8202505;28;20408;-94
2023/06/02 14:02:51;;;;;;;11.40;5.00;;;;;;;;;;8182625;29;20050;-94
2023/06/02 14:06:55;;;;;;;11.63;4.45;;;;;;;;;;8190614;28;20081;-95
2023/06/02 14:11:00;;;;;;;17.50;5.32;;;;;;;;;;8188898;28;20074;-95
2023/06/02 14:15:05;;;;;;;14.65;5.03;;;;;;;;;;8184530;28;20051;-94
2023/06/02 14:19:12;;;;;;;9.73;5.45;;;;;;;;;;8193403;29;20135;-95
2023/06/02 14:23:22;;;;;;;9.53;5.13;;;;;;;;;;8193001;29;20051;-95
2023/06/02 14:27:33;;;;;;;11.32;5.53;;;;;;;;;;8193332;29;20423;-95
2023/06/02 14:31:38;;;;;;;10.57;5.00;;;;;;;;;;8191356;28;20145;-95
2023/06/02 14:35:43;;;;;;;7.45;4.03;;;;;;;;;;8192063;28;20619;-95
2023/06/02 14:39:47;;;;;;;5.85;3.92;;;;;;;;;;8214362;28;20047;-94
2023/06/02 14:43:51;;;;;;;4.82;2.88;;;;;;;;;;8192904;28;20050;-93
2023/06/02 14:47:56;;;;;;;6.68;3.22;;;;;;;;;;8191177;28;20056;-95
2023/06/02 14:51:59;;;;;;;5.25;3.20;;;;;;;;;;8218191;28;20051;-95
2023/06/02 14:56:02;;;;;;;4.18;2.97;;;;;;;;;;8189464;28;20107;-95
2023/06/02 15:00:09;;;;;;;7.40;2.53;;;;;;;;;;8210820;28;20039;-93
2023/06/02 15:04:14;;;;;;;4.43;2.60;;;;;;;;;;8191226;29;20052;-94
2023/06/02 15:08:17;;;;;;;3.63;2.20;;;;;;;;;;8217776;28;20577;-93
2023/06/02 15:12:21;;;;;;;4.50;2.80;;;;;;;;;;8204095;28;20043;-91
2023/06/02 15:16:31;;;;;;;3.50;2.28;;;;;;;;;;8212190;28;20082;-95
2023/06/02 15:20:37;;;;;;;2.78;1.95;;;;;;;;;;8207758;28;20055;-94
2023/06/02 15:24:41;;;;;;;4.15;2.55;;;;;;;;;;8180929;29;20476;-95
2023/06/02 15:28:45;;;;;;;6.35;2.33;;;;;;;;;;8176858;29;20095;-92
2023/06/02 15:32:50;;;;;;;5.15;2.40;;;;;;;;;;8174256;28;20467;-92
2023/06/02 15:36:54;;;;;;;5.85;2.42;;;;;;;;;;8196976;29;20071;-92
2023/06/02 15:40:57;;;;;;;3.97;2.50;;;;;;;;;;8190586;23;20160;-94
2023/06/02 15:45:01;;;;;;;4.22;2.53;;;;;;;;;;8197152;28;20089;-94
2023/06/02 15:49:06;;;;;;;3.63;2.42;;;;;;;;;;8175428;29;20655;-93
2023/06/02 15:53:09;;;;;;;4.55;2.60;;;;;;;;;;8200738;28;20070;-94
2023/06/02 15:57:13;;;;;;;5.30;2.70;;;;;;;;;;8194816;29;20054;-96
2023/06/02 16:01:16;;;;;;;7.10;3.30;;;;;;;;;;8195178;28;20390;-94
2023/06/02 16:05:21;;;;;;;8.15;2.80;;;;;;;;;;8222528;28;20053;-94
2023/06/02 16:09:25;;;;;;;3.95;2.42;;;;;;;;;;8207516;29;20474;-93
2023/06/02 16:13:30;;;;;;;5.20;2.72;;;;;;;;;;8207462;28;20059;-95
2023/06/02 16:17:33;;;;;;;5.88;2.22;;;;;;;;;;8205304;29;20043;-93
2023/06/02 16:21:50;;;;;;;4.88;2.70;;;;;;;;;;8216196;28;20055;-96
2023/06/02 16:25:55;;;;;;;7.88;2.67;;;;;;;;;;8209742;29;20071;-94
2023/06/02 16:29:59;;;;;;;7.00;3.15;;;;;;;;;;8212044;28;20049;-92
2023/06/02 16:34:03;;;;;;;8.63;5.10;;;;;;;;;;8204040;29;20047;-91
2023/06/02 16:38:10;;;;;;;6.25;3.75;;;;;;;;;;8203044;29;20840;-92
2023/06/02 16:42:13;;;;;;;6.32;3.10;;;;;;;;;;8205139;28;20062;-93
2023/06/02 16:46:18;;;;;;;5.53;3.00;;;;;;;;;;8197853;28;20053;-92
2023/06/02 16:50:25;;;;;;;8.65;3.53;;;;;;;;;;8210980;28;20190;-95
2023/06/02 16:54:33;;;;;;;6.20;3.08;;;;;;;;;;8190414;28;20066;-95
2023/06/02 16:58:38;;;;;;;7.00;3.38;;;;;;;;;;8211980;28;20138;-96
2023/06/02 17:02:50;;;;;;;6.30;3.13;;;;;;;;;;8233890;28;20101;-93
2023/06/02 17:07:10;;;;;;;5.90;3.00;;;;;;;;;;8221630;28;20047;-96
2023/06/02 17:11:19;;;;;;;6.93;3.53;;;;;;;;;;8186650;29;20055;-94
2023/06/02 17:15:24;;;;;;;8.10;3.78;;;;;;;;;;8200337;28;20058;-94
2023/06/02 17:19:34;;;;;;;4.78;2.65;;;;;;;;;;8196920;28;20055;-94
2023/06/02 17:24:06;;;;;;;12.73;7.60;;;;;;;;;;8212649;28;20063;-96
2023/06/02 17:28:12;;;;;;;6.28;3.67;;;;;;;;;;8210401;28;20053;-94
2023/06/02 17:32:21;;;;;;;10.27;3.95;;;;;;;;;;8169831;29;20055;-94
2023/06/02 17:36:26;;;;;;;9.88;3.95;;;;;;;;;;8189959;29;20117;-94
2023/06/02 17:40:34;;;;;;;8.00;3.63;;;;;;;;;;8199434;28;20059;-94
2023/06/02 17:44:42;;;;;;;7.50;3.00;;;;;;;;;;8153403;29;20134;-94
2023/06/02 17:48:47;;;;;;;6.72;3.80;;;;;;;;;;8165751;29;20103;-93
2023/06/02 17:52:53;;;;;;;9.23;4.25;;;;;;;;;;8182190;29;20044;-93
2023/06/02 17:56:56;;;;;;;9.93;5.57;;;;;;;;;;8169221;29;20062;-93
2023/06/02 18:01:01;;;;;;;10.05;3.78;;;;;;;;;;8179116;29;20075;-93
2023/06/02 18:05:06;;;;;;;7.88;3.65;;;;;;;;;;8174587;29;20047;-94
2023/06/02 18:09:12;;;;;;;8.55;4.05;;;;;;;;;;8175688;29;20158;-94
2023/06/02 18:13:21;;;;;;;8.55;4.00;;;;;;;;;;8179854;29;20131;-93
2023/06/02 18:17:27;;;;;;;7.40;3.95;;;;;;;;;;8143681;29;20076;-91
2023/06/02 18:21:30;;;;;;;10.80;4.57;;;;;;;;;;8192296;29;20051;-92
2023/06/02 18:25:33;;;;;;;11.93;4.88;;;;;;;;;;8180793;29;20055;-93
2023/06/02 18:29:40;;;;;;;9.95;4.93;;;;;;;;;;8180055;29;20047;-93
2023/06/02 18:33:51;;;;;;;11.15;6.15;;;;;;;;;;8159194;29;20047;-95
2023/06/02 18:37:54;;;;;;;11.77;5.68;;;;;;;;;;8160321;29;20051;-94
2023/06/02 18:41:58;;;;;;;12.38;6.00;;;;;;;;;;8187874;28;20066;-93
2023/06/02 18:46:01;;;;;;;16.58;6.50;;;;;;;;;;8206835;28;20094;-92
2023/06/02 18:50:09;;;;;;;18.33;8.15;;;;;;;;;;8206662;29;20116;-94
2023/06/02 18:54:13;;;;;;;18.25;9.20;;;;;;;;;;8204393;28;20117;-95
2023/06/02 18:58:17;;;;;;;29.40;10.77;;;;;;;;;;8208572;28;20054;-93
2023/06/02 19:02:21;;;;;;;15.48;7.55;;;;;;;;;;8209532;28;20074;-93
2023/06/02 19:06:26;;;;;;;19.60;7.95;;;;;;;;;;8206247;28;20515;-95
2023/06/02 19:10:31;;;;;;;15.35;7.30;;;;;;;;;;8206635;28;20043;-94
2023/06/02 19:14:35;;;;;;;21.10;9.60;;;;;;;;;;8199100;28;20423;-93
2023/06/02 19:18:45;;;;;;;19.60;9.57;;;;;;;;;;8227435;28;20050;-96
2023/06/02 19:22:52;;;;;;;33.95;15.93;;;;;;;;;;8216335;28;20582;-96
2023/06/02 19:26:55;;;;;;;22.30;13.02;;;;;;;;;;8187263;29;20050;-93
2023/06/02 19:31:15;;;;;;;12.25;6.85;;;;;;;;;;8206075;28;20050;-95
2023/06/02 19:35:21;;;;;;;15.50;6.97;;;;;;;;;;8219112;28;20126;-96
2023/06/02 19:39:26;;;;;;;12.48;7.03;;;;;;;;;;8205534;29;20050;-95
2023/06/02 19:43:31;;;;;;;12.77;6.68;;;;;;;;;;8205669;28;20067;-95
2023/06/02 19:47:34;;;;;;;18.25;7.85;;;;;;;;;;8205325;28;20388;-94
2023/06/02 19:51:39;;;;;;;16.05;8.35;;;;;;;;;;8205415;29;20043;-94
2023/06/02 19:55:44;;;;;;;49.15;17.17;;;;;;;;;;8217191;28;20450;-94
2023/06/02 19:59:50;;;;;;;13.15;8.35;;;;;;;;;;8205406;28;20043;-95
2023/06/02 20:03:53;;;;;;;14.63;7.45;;;;;;;;;;8205208;28;20050;-94
2023/06/02 20:07:57;;;;;;;112.43;31.85;;;;;;;;;;8192018;28;20479;-95
2023/06/02 20:12:01;;;;;;;32.88;13.13;;;;;;;;;;8204408;28;20051;-94
2023/06/02 20:16:05;;;;;;;18.70;8.10;;;;;;;;;;8192357;28;20039;-95
2023/06/02 20:20:09;;;;;;;15.38;7.75;;;;;;;;;;8203244;28;20051;-93
2023/06/02 20:24:12;;;;;;;12.10;7.20;;;;;;;;;;8196083;28;20051;-94
2023/06/02 20:28:17;;;;;;;10.40;6.63;;;;;;;;;;8186795;29;20051;-93
2023/06/02 20:32:20;;;;;;;55.10;14.63;;;;;;;;;;8203614;29;20054;-94
2023/06/02 20:36:23;;;;;;;31.70;11.00;;;;;;;;;;8203783;28;20039;-93
2023/06/02 20:40:27;;;;;;;40.88;17.65;;;;;;;;;;8203846;29;20050;-93
2023/06/02 20:44:31;;;;;;;25.60;12.93;;;;;;;;;;8216268;28;20073;-94
2023/06/02 20:48:35;;;;;;;22.05;11.23;;;;;;;;;;8186393;29;20506;-93
2023/06/02 20:52:38;;;;;;;31.92;16.35;;;;;;;;;;8185543;29;20099;-94
2023/06/02 20:56:41;;;;;;;28.48;11.73;;;;;;;;;;8185576;29;20113;-94
2023/06/02 21:00:46;;;;;;;22.85;9.52;;;;;;;;;;8203138;28;20051;-94
2023/06/02 21:04:48;;;;;;;18.95;8.15;;;;;;;;;;8184253;28;20058;-93
2023/06/02 21:08:52;;;;;;;14.20;7.85;;;;;;;;;;8203056;29;20047;-93
2023/06/02 21:12:55;;;;;;;40.63;17.00;;;;;;;;;;8202914;28;20043;-93
2023/06/02 21:17:00;;;;;;;36.17;16.98;;;;;;;;;;8202756;29;20046;-94
2023/06/02 21:21:03;;;;;;;56.25;24.98;;;;;;;;;;8204824;28;20047;-95
2023/06/02 21:25:07;;;;;;;67.03;26.08;;;;;;;;;;8216450;28;20504;-93
2023/06/02 21:29:10;;;;;;;40.38;18.80;;;;;;;;;;8215434;28;20047;-93
2023/06/02 21:33:15;;;;;;;36.80;15.82;;;;;;;;;;8208860;29;20051;-94
2023/06/02 21:37:18;;;;;;;20.48;9.40;;;;;;;;;;8209027;29;20051;-92
2023/06/02 21:41:21;;;;;;;20.75;9.43;;;;;;;;;;8208699;28;20063;-94
2023/06/02 21:45:24;;;;;;;17.25;8.60;;;;;;;;;;8209042;29;20050;-94
2023/06/02 21:49:28;;;;;;;17.58;8.70;;;;;;;;;;8208692;28;20079;-95
2023/06/02 21:53:32;;;;;;;17.38;8.57;;;;;;;;;;8208685;28;20073;-94
2023/06/02 21:57:35;;;;;;;19.65;8.88;;;;;;;;;;8208504;28;20051;-94
2023/06/02 22:01:38;;;;;;;23.67;9.30;;;;;;;;;;8208524;29;20067;-94
2023/06/02 22:05:42;;;;;;;19.90;9.43;;;;;;;;;;8208518;28;20055;-93
2023/06/02 22:09:46;;;;;;;22.75;9.85;;;;;;;;;;8208026;29;20047;-94
2023/06/02 22:13:49;;;;;;;15.75;8.20;;;;;;;;;;8207940;28;20047;-94
2023/06/02 22:17:52;;;;;;;19.58;8.65;;;;;;;;;;8207864;29;20081;-93
2023/06/02 22:21:57;;;;;;;13.13;6.43;;;;;;;;;;8207854;28;20476;-94
2023/06/02 22:26:00;;;;;;;14.15;6.28;;;;;;;;;;8219999;28;20479;-94
2023/06/02 22:30:04;;;;;;;13.07;6.90;;;;;;;;;;8226228;28;20042;-93
2023/06/02 22:34:07;;;;;;;17.38;6.53;;;;;;;;;;8213954;28;20043;-94
2023/06/02 22:38:12;;;;;;;12.65;5.60;;;;;;;;;;8207123;29;20138;-93
2023/06/02 22:42:16;;;;;;;17.65;5.68;;;;;;;;;;8206258;28;20519;-94
2023/06/02 22:46:19;;;;;;;10.13;5.47;;;;;;;;;;8194113;28;20054;-93
2023/06/02 22:50:22;;;;;;;14.43;5.20;;;;;;;;;;8206888;28;20047;-94
2023/06/02 22:54:27;;;;;;;12.90;5.30;;;;;;;;;;8194935;29;20071;-94
2023/06/02 22:58:30;;;;;;;10.48;5.20;;;;;;;;;;8202757;28;20047;-93
2023/06/02 23:02:33;;;;;;;12.07;5.43;;;;;;;;;;8218872;28;20058;-94
2023/06/02 23:06:36;;;;;;;14.88;5.40;;;;;;;;;;8206417;28;20074;-94
2023/06/02 23:10:42;;;;;;;13.10;5.53;;;;;;;;;;8193939;29;20067;-94
2023/06/02 23:14:46;;;;;;;16.27;5.78;;;;;;;;;;8219276;28;20102;-94
2023/06/02 23:18:49;;;;;;;16.10;6.60;;;;;;;;;;8189043;28;20500;-93
2023/06/02 23:22:53;;;;;;;18.35;8.52;;;;;;;;;;8205731;28;20051;-94
2023/06/02 23:26:58;;;;;;;14.52;6.22;;;;;;;;;;8212321;28;20051;-93
2023/06/02 23:31:01;;;;;;;12.50;6.55;;;;;;;;;;8211162;28;20047;-94
2023/06/02 23:35:08;;;;;;;13.02;5.80;;;;;;;;;;8205621;28;20051;-93
2023/06/02 23:39:11;;;;;;;16.05;6.90;;;;;;;;;;8205444;28;20051;-93
2023/06/02 23:43:16;;;;;;;13.68;6.82;;;;;;;;;;8212580;28;20053;-93
2023/06/02 23:47:19;;;;;;;15.05;7.65;;;;;;;;;;8211239;28;20047;-93
2023/06/02 23:51:22;;;;;;;16.58;8.00;;;;;;;;;;8216212;28;20047;-93
2023/06/02 23:55:25;;;;;;;13.65;7.78;;;;;;;;;;8216828;28;20070;-94
2023/06/02 23:59:30;;;;;;;15.23;7.40;;;;;;;;;;8187362;29;20055;-93
